Time;durP1;ratioP1;P1;durP2;ratioP2;P2;SDS_P1;SDS_P2;PMS_P1;PMS_P2;Temp;Humidity;BMP_temperature;BMP_pressure;BME280_temperature;BME280_humidity;BME280_pressure;Samples;Min_cycle;Max_cycle;Signal;HPM_P1;HPM_P2
2023/06/18 00:14:46;;;;;;;7.90;3.60;;;14.60;99.90;;;;;;4741684;30;20126;-83
2023/06/18 00:24:36;;;;;;;4.50;4.10;;;14.50;99.90;;;;;;4758528;30;20040;-83
2023/06/18 00:28:25;;;;;;;5.13;4.05;;;14.30;99.90;;;;;;4756413;30;20124;-82
2023/06/18 04:49:51;;;;;;;5.75;4.00;;;;;;;;;;4915176;29;20147;-85
2023/06/18 04:52:17;;;;;;;3.85;3.47;;;14.10;99.90;;;;;;4915104;29;20035;-85
2023/06/18 04:54:43;;;;;;;3.70;3.35;;;;;;;;;;4914275;29;20020;-85
2023/06/18 04:57:09;;;;;;;6.63;3.50;;;15.20;99.90;;;;;;4914100;29;20055;-84
2023/06/18 04:59:39;;;;;;;6.82;3.85;;;15.40;99.90;;;;;;4914283;29;20075;-85
2023/06/18 05:02:05;;;;;;;;;;;15.30;99.90;;;;;;4915607;29;20028;-85
2023/06/18 05:04:31;;;;;;;4.07;3.25;;;15.20;99.90;;;;;;4914222;29;20288;-85
2023/06/18 05:06:57;;;;;;;6.60;4.05;;;15.10;99.90;;;;;;4915900;29;20028;-85
2023/06/18 05:09:23;;;;;;;3.80;3.13;;;15.10;99.90;;;;;;4914085;29;20024;-85
2023/06/18 05:11:49;;;;;;;6.10;4.40;;;15.10;99.90;;;;;;4913692;29;20031;-85
2023/06/18 05:14:15;;;;;;;3.80;3.42;;;15.10;99.90;;;;;;4913879;29;20074;-85
2023/06/18 05:16:40;;;;;;;4.43;4.03;;;15.10;99.90;;;;;;4914037;29;20031;-85
2023/06/18 05:19:06;;;;;;;5.60;4.10;;;;;;;;;;4914339;29;20067;-85
2023/06/18 05:21:32;;;;;;;4.07;3.40;;;15.20;99.90;;;;;;4913866;29;20070;-85
2023/06/18 05:23:58;;;;;;;6.18;4.15;;;;;;;;;;4914004;29;20063;-85
2023/06/18 05:26:24;;;;;;;5.57;3.78;;;15.50;99.90;;;;;;4913347;29;20028;-84
2023/06/18 05:28:50;;;;;;;4.50;3.60;;;15.60;99.90;;;;;;4914013;29;20466;-85
2023/06/18 05:31:16;;;;;;;4.07;3.47;;;;;;;;;;4914158;29;20039;-86
2023/06/18 05:33:42;;;;;;;5.50;3.95;;;15.90;99.90;;;;;;4913851;29;20039;-85
2023/06/18 05:36:07;;;;;;;5.25;4.05;;;16.30;99.90;;;;;;4913869;29;20113;-84
2023/06/18 05:38:33;;;;;;;4.63;4.15;;;16.30;99.90;;;;;;4913474;29;20076;-85
2023/06/18 05:40:59;;;;;;;5.13;4.35;;;16.40;99.90;;;;;;4913752;29;20024;-85
2023/06/18 05:43:24;;;;;;;5.32;4.40;;;16.50;99.90;;;;;;4913210;29;20149;-84
2023/06/18 05:45:50;;;;;;;4.78;3.92;;;16.70;99.90;;;;;;4913579;29;20020;-86
2023/06/18 05:48:16;;;;;;;4.93;4.00;;;16.80;99.90;;;;;;4897894;29;20108;-86
2023/06/18 05:50:42;;;;;;;4.65;3.85;;;;;;;;;;4915398;29;20058;-87
2023/06/18 05:53:08;;;;;;;5.28;4.45;;;17.10;99.90;;;;;;4913670;29;20561;-86
2023/06/18 05:55:34;;;;;;;4.50;3.97;;;;;;;;;;4911397;29;20033;-87
2023/06/18 05:58:01;;;;;;;4.47;3.65;;;17.40;99.90;;;;;;4911443;29;20029;-86
2023/06/18 06:00:26;;;;;;;4.38;3.97;;;17.60;99.90;;;;;;4912118;29;20035;-86
2023/06/18 06:02:53;;;;;;;5.07;4.30;;;17.70;99.90;;;;;;4911792;29;20036;-86
2023/06/18 06:05:19;;;;;;;5.47;4.13;;;17.90;99.90;;;;;;4911925;29;20456;-84
2023/06/18 06:07:45;;;;;;;7.20;4.70;;;18.30;99.90;;;;;;4911752;29;20024;-83
2023/06/18 06:10:14;;;;;;;6.45;4.45;;;18.60;99.90;;;;;;4912785;29;20020;-83
2023/06/18 06:12:40;;;;;;;5.78;4.55;;;18.60;99.90;;;;;;4913011;29;20120;-83
2023/06/18 06:15:06;;;;;;;8.63;4.60;;;18.70;99.90;;;;;;4913545;29;20077;-84
2023/06/18 06:17:32;;;;;;;7.15;4.60;;;18.80;99.90;;;;;;4917552;29;20044;-84
2023/06/18 06:19:57;;;;;;;8.38;4.55;;;19.00;99.90;;;;;;4925426;29;20116;-85
2023/06/18 06:22:23;;;;;;;8.30;5.45;;;19.30;99.90;;;;;;4916068;29;20028;-84
2023/06/18 06:24:49;;;;;;;6.20;5.40;;;19.30;99.90;;;;;;4916986;29;20028;-83
2023/06/18 06:27:15;;;;;;;5.55;4.63;;;;;;;;;;4916691;29;20457;-83
2023/06/18 06:29:40;;;;;;;5.05;4.55;;;19.20;99.90;;;;;;4918427;29;20032;-85
2023/06/18 06:32:06;;;;;;;7.00;4.35;;;19.30;99.90;;;;;;4916903;29;20030;-84
2023/06/18 06:34:32;;;;;;;8.65;4.60;;;19.50;99.90;;;;;;4916971;29;20426;-84
2023/06/18 06:36:58;;;;;;;6.65;4.55;;;19.50;99.90;;;;;;4916785;29;20062;-85
2023/06/18 06:39:24;;;;;;;6.32;4.85;;;;;;;;;;4916867;29;20446;-84
2023/06/18 06:41:50;;;;;;;6.20;4.75;;;20.20;99.00;;;;;;4916351;29;20083;-84
2023/06/18 06:44:15;;;;;;;6.70;4.57;;;20.90;97.90;;;;;;4900902;29;20036;-83
2023/06/18 06:46:41;;;;;;;5.53;4.93;;;22.00;95.60;;;;;;4916534;29;20115;-83
2023/06/18 06:49:07;;;;;;;6.15;4.43;;;23.20;91.90;;;;;;4916496;29;20021;-84
2023/06/18 06:51:38;;;;;;;6.53;4.47;;;24.50;87.60;;;;;;4916581;29;20024;-83
2023/06/18 06:54:04;;;;;;;6.82;4.65;;;25.40;79.10;;;;;;4916192;29;20111;-83
2023/06/18 06:56:30;;;;;;;6.88;4.57;;;26.30;70.10;;;;;;4900219;29;20032;-84
2023/06/18 06:58:57;;;;;;;5.13;4.63;;;;;;;;;;4916319;29;20118;-80
2023/06/18 07:01:23;;;;;;;4.70;4.22;;;27.00;67.50;;;;;;4916550;29;20117;-81
2023/06/18 07:03:49;;;;;;;6.43;4.65;;;;;;;;;;4916268;29;20397;-81
2023/06/18 07:06:15;;;;;;;4.15;3.53;;;27.60;64.10;;;;;;4915791;29;20034;-79
2023/06/18 07:08:41;;;;;;;5.35;4.15;;;;;;;;;;4900425;29;20028;-79
2023/06/18 07:11:07;;;;;;;7.45;4.10;;;;;;;;;;4915725;29;20119;-78
2023/06/18 07:13:33;;;;;;;6.70;3.90;;;29.00;59.40;;;;;;4915637;29;20080;-78
2023/06/18 07:15:59;;;;;;;6.55;3.63;;;29.00;60.00;;;;;;4917151;29;20051;-81
2023/06/18 07:18:25;;;;;;;6.53;4.10;;;26.00;55.20;;;;;;4900252;29;20075;-82
2023/06/18 07:20:50;;;;;;;4.85;3.85;;;29.20;58.50;;;;;;4899870;29;20363;-82
2023/06/18 07:23:16;;;;;;;5.82;5.22;;;29.30;57.00;;;;;;4900021;29;20123;-83
2023/06/18 07:25:42;;;;;;;7.07;4.05;;;29.40;57.40;;;;;;4900113;29;20111;-84
2023/06/18 07:28:07;;;;;;;6.28;4.57;;;29.60;55.50;;;;;;4900160;29;20028;-81
2023/06/18 07:30:33;;;;;;;4.95;3.92;;;29.20;55.30;;;;;;4916271;29;20036;-81
2023/06/18 07:33:00;;;;;;;5.88;4.18;;;;;;;;;;4897971;29;20072;-81
2023/06/18 07:35:25;;;;;;;6.88;3.88;;;29.10;54.90;;;;;;4914375;29;20024;-79
2023/06/18 07:37:51;;;;;;;7.80;4.10;;;29.00;56.10;;;;;;4900678;29;20047;-83
2023/06/18 07:40:17;;;;;;;4.22;3.67;;;29.30;56.00;;;;;;4896000;29;20032;-80
2023/06/18 07:42:43;;;;;;;4.50;3.92;;;29.80;54.90;;;;;;4898971;29;20051;-81
2023/06/18 07:45:09;;;;;;;4.40;3.50;;;30.30;54.60;;;;;;4887802;29;20021;-81
2023/06/18 07:47:35;;;;;;;4.28;3.88;;;30.90;53.40;;;;;;4884559;29;20517;-83
2023/06/18 07:50:01;;;;;;;3.88;3.45;;;30.90;53.70;;;;;;4889339;29;20336;-83
2023/06/18 07:52:27;;;;;;;4.32;3.92;;;31.00;52.50;;;;;;4883427;29;20021;-82
2023/06/18 07:54:52;;;;;;;7.90;3.53;;;30.90;51.80;;;;;;4894552;29;20047;-83
2023/06/18 07:57:18;;;;;;;7.38;3.97;;;30.90;53.50;;;;;;4875995;29;20422;-82
2023/06/18 07:59:45;;;;;;;3.90;3.60;;;30.70;50.60;;;;;;4876433;29;20128;-83
2023/06/18 08:02:10;;;;;;;4.25;3.83;;;30.80;51.30;;;;;;4876463;29;20289;-82
2023/06/18 08:04:36;;;;;;;6.47;4.03;;;;;;;;;;4876420;29;20278;-85
2023/06/18 08:07:02;;;;;;;4.75;4.25;;;29.80;51.00;;;;;;4892111;29;20021;-85
2023/06/18 08:09:28;;;;;;;7.50;4.70;;;29.30;52.00;;;;;;4876687;29;20037;-86
2023/06/18 08:11:55;;;;;;;11.60;8.15;;;29.40;56.20;;;;;;4878086;29;20028;-86
2023/06/18 08:14:20;;;;;;;7.45;4.35;;;29.70;54.50;;;;;;4880098;29;20387;-82
2023/06/18 08:16:46;;;;;;;4.18;3.78;;;;;;;;;;4879593;29;20035;-86
2023/06/18 08:19:12;;;;;;;6.30;3.70;;;;;;;;;;4895789;29;20037;-84
2023/06/18 08:21:38;;;;;;;4.03;3.53;;;30.20;52.70;;;;;;4894742;29;20034;-83
2023/06/18 08:24:04;;;;;;;6.15;4.28;;;30.60;52.20;;;;;;4879072;29;20033;-84
2023/06/18 08:26:30;;;;;;;5.70;4.93;;;30.80;52.20;;;;;;4879788;29;20025;-84
2023/06/18 08:28:55;;;;;;;6.20;3.92;;;30.90;52.50;;;;;;4882371;29;20028;-83
2023/06/18 08:31:22;;;;;;;4.60;4.20;;;31.30;54.10;;;;;;4883384;29;20025;-81
2023/06/18 08:33:48;;;;;;;4.78;4.15;;;31.30;50.40;;;;;;4879824;29;20040;-81
2023/06/18 08:36:14;;;;;;;4.38;4.00;;;31.30;52.30;;;;;;4879054;29;20112;-84
2023/06/18 08:38:40;;;;;;;3.97;3.47;;;30.70;52.40;;;;;;4879803;29;20036;-82
2023/06/18 08:41:07;;;;;;;6.72;3.35;;;;;;;;;;4879445;29;20486;-83
2023/06/18 08:43:35;;;;;;;7.05;4.45;;;31.00;50.50;;;;;;4894971;29;20040;-84
2023/06/18 08:46:12;;;;;;;4.80;3.80;;;30.80;50.10;;;;;;4879442;29;20455;-81
2023/06/18 08:49:05;;;;;;;4.28;3.60;;;30.90;51.10;;;;;;4879184;29;20317;-81
2023/06/18 08:51:32;;;;;;;5.35;4.85;;;30.90;51.10;;;;;;4893498;29;20399;-83
2023/06/18 08:54:18;;;;;;;6.38;3.83;;;30.80;51.50;;;;;;4879674;29;20647;-81
2023/06/18 08:56:46;;;;;;;4.88;4.00;;;31.20;50.60;;;;;;4894926;29;20025;-84
2023/06/18 08:59:13;;;;;;;5.53;3.55;;;;;;;;;;4879215;29;20529;-84
2023/06/18 09:01:39;;;;;;;4.53;4.13;;;31.80;50.30;;;;;;4894811;29;20036;-82
2023/06/18 09:04:06;;;;;;;4.82;4.00;;;32.10;50.40;;;;;;4879455;29;20035;-83
2023/06/18 09:06:32;;;;;;;7.50;5.28;;;;;;;;;;4879372;29;20029;-82
2023/06/18 09:09:00;;;;;;;5.97;5.13;;;32.10;50.50;;;;;;4894941;29;20032;-83
2023/06/18 09:11:26;;;;;;;5.77;3.80;;;32.10;51.30;;;;;;4879355;29;20029;-84
2023/06/18 09:13:52;;;;;;;8.20;3.80;;;31.80;50.30;;;;;;4879264;29;20368;-84
2023/06/18 09:16:19;;;;;;;4.13;3.63;;;;;;;;;;4879301;29;20115;-84
2023/06/18 09:18:45;;;;;;;5.70;4.40;;;32.40;50.40;;;;;;4895001;29;20044;-83
2023/06/18 09:21:38;;;;;;;5.93;3.70;;;32.30;50.80;;;;;;4879170;29;20378;-84
2023/06/18 09:24:14;;;;;;;6.97;4.30;;;31.70;50.00;;;;;;4894604;29;20025;-85
2023/06/18 09:26:40;;;;;;;6.28;4.45;;;;;;;;;;4879067;29;20123;-84
2023/06/18 09:29:08;;;;;;;4.30;3.90;;;31.10;50.60;;;;;;4894789;29;20024;-84
2023/06/18 09:31:35;;;;;;;4.13;3.78;;;31.20;50.20;;;;;;4879297;29;20033;-85
2023/06/18 09:34:15;;;;;;;7.28;4.60;;;31.20;50.10;;;;;;4879125;29;20025;-82
2023/06/18 09:36:42;;;;;;;4.30;3.90;;;30.90;49.80;;;;;;4879011;29;20029;-84
2023/06/18 09:39:25;;;;;;;3.92;3.63;;;31.00;49.20;;;;;;4879185;29;20131;-82
2023/06/18 09:41:52;;;;;;;6.38;3.97;;;31.20;49.40;;;;;;4879026;29;20339;-84
2023/06/18 09:44:19;;;;;;;4.45;3.85;;;31.40;51.60;;;;;;4879178;29;20449;-85
2023/06/18 09:46:46;;;;;;;7.05;3.75;;;31.20;49.40;;;;;;4878870;29;20088;-82
2023/06/18 09:49:20;;;;;;;4.68;3.88;;;30.60;50.40;;;;;;4878928;29;20062;-87
2023/06/18 09:51:48;;;;;;;5.60;4.55;;;30.50;50.30;;;;;;4879001;29;20553;-88
2023/06/18 09:54:14;;;;;;;4.30;3.90;;;30.40;51.30;;;;;;4878833;29;20036;-85
2023/06/18 09:57:00;;;;;;;6.55;4.00;;;30.90;50.10;;;;;;4880844;29;20033;-84
2023/06/18 09:59:27;;;;;;;5.63;3.78;;;31.10;50.10;;;;;;4882667;29;20036;-86
2023/06/18 10:01:54;;;;;;;3.42;3.13;;;31.40;50.30;;;;;;4882616;29;20040;-85
2023/06/18 10:04:21;;;;;;;3.50;3.20;;;;;;;;;;4883028;29;20119;-84
2023/06/18 10:06:51;;;;;;;4.97;3.75;;;31.80;49.80;;;;;;4898188;29;20029;-84
2023/06/18 10:09:19;;;;;;;5.60;3.90;;;32.60;49.20;;;;;;4882630;29;20176;-84
2023/06/18 10:11:46;;;;;;;3.55;3.30;;;32.90;47.70;;;;;;4882812;29;20067;-85
2023/06/18 10:14:12;;;;;;;4.97;3.83;;;32.90;47.30;;;;;;4882518;29;20141;-87
2023/06/18 10:16:42;;;;;;;5.38;3.83;;;31.50;48.80;;;;;;4882600;29;20032;-85
2023/06/18 10:19:14;;;;;;;7.80;3.70;;;31.40;49.60;;;;;;4882593;29;20051;-87
2023/06/18 10:21:53;;;;;;;4.65;3.28;;;31.30;47.40;;;;;;4882459;29;20073;-86
2023/06/18 10:24:23;;;;;;;3.75;3.20;;;31.00;47.70;;;;;;4882447;29;20032;-85
2023/06/18 10:26:49;;;;;;;5.38;3.45;;;30.90;48.20;;;;;;4897890;29;20044;-85
2023/06/18 10:29:15;;;;;;;6.85;3.63;;;;;;;;;;4882403;29;20562;-85
2023/06/18 10:31:41;;;;;;;3.95;3.28;;;31.00;47.80;;;;;;4897783;29;20033;-85
2023/06/18 10:34:08;;;;;;;5.00;3.33;;;30.90;49.40;;;;;;4882284;29;20116;-85
2023/06/18 10:36:34;;;;;;;5.78;3.17;;;31.30;48.70;;;;;;4883934;29;20056;-85
2023/06/18 10:39:01;;;;;;;4.15;3.72;;;32.00;47.70;;;;;;4892562;29;20104;-84
2023/06/18 10:41:27;;;;;;;5.47;3.40;;;32.80;47.50;;;;;;4904050;29;20025;-83
2023/06/18 10:43:54;;;;;;;4.40;4.00;;;34.00;47.10;;;;;;4899715;29;20131;-85
2023/06/18 10:46:21;;;;;;;4.68;3.17;;;33.60;45.60;;;;;;4882101;29;20028;-84
2023/06/18 10:49:15;;;;;;;3.88;3.45;;;33.50;45.60;;;;;;4882038;29;20443;-83
2023/06/18 10:52:05;;;;;;;3.47;3.17;;;32.90;47.90;;;;;;4897127;29;20182;-84
2023/06/18 10:54:31;;;;;;;6.47;3.42;;;;;;;;;;4881674;29;20044;-85
2023/06/18 10:56:58;;;;;;;9.27;4.65;;;33.90;45.50;;;;;;4897284;29;20486;-81
2023/06/18 10:59:41;;;;;;;5.00;4.00;;;33.90;46.70;;;;;;4882064;29;20490;-83
2023/06/18 11:02:07;;;;;;;3.33;2.85;;;34.90;46.00;;;;;;4882352;29;20029;-83
2023/06/18 11:04:33;;;;;;;4.32;3.35;;;37.00;47.90;;;;;;4881779;29;20059;-85
2023/06/18 11:07:27;;;;;;;4.80;3.90;;;33.90;44.50;;;;;;4881221;29;20076;-82
2023/06/18 11:09:58;;;;;;;3.75;3.42;;;33.50;45.90;;;;;;4881680;29;20037;-82
2023/06/18 11:12:24;;;;;;;5.45;3.72;;;;;;;;;;4898390;29;20033;-85
2023/06/18 11:15:11;;;;;;;5.30;3.75;;;34.00;44.60;;;;;;4896968;29;20055;-85
2023/06/18 11:17:38;;;;;;;4.20;3.38;;;34.90;45.60;;;;;;4897377;29;20037;-84
2023/06/18 11:20:05;;;;;;;4.22;3.75;;;35.80;44.50;;;;;;4881427;29;20032;-83
2023/06/18 11:22:31;;;;;;;3.55;3.25;;;;;;;;;;4881700;29;20037;-84
2023/06/18 11:25:00;;;;;;;3.90;3.47;;;35.40;43.50;;;;;;4897237;29;20080;-85
2023/06/18 11:27:27;;;;;;;6.40;4.03;;;34.70;44.20;;;;;;4898201;29;20061;-85
2023/06/18 11:29:57;;;;;;;4.05;3.30;;;34.60;44.10;;;;;;4882461;29;20067;-85
2023/06/18 11:32:24;;;;;;;7.10;4.30;;;34.00;44.80;;;;;;4881161;29;20040;-84
2023/06/18 11:34:50;;;;;;;6.03;4.20;;;34.00;44.50;;;;;;4881238;29;20485;-85
2023/06/18 11:37:16;;;;;;;5.50;3.85;;;;;;;;;;4880888;29;20057;-85
2023/06/18 11:39:42;;;;;;;4.80;3.95;;;;;;;;;;4896887;29;20028;-84
2023/06/18 11:42:18;;;;;;;4.38;3.78;;;35.30;44.40;;;;;;4896165;29;20116;-83
2023/06/18 11:44:52;;;;;;;4.63;3.47;;;36.30;44.20;;;;;;4880842;29;20438;-84
2023/06/18 11:47:19;;;;;;;3.53;3.22;;;37.40;41.80;;;;;;4881146;29;20044;-84
2023/06/18 11:49:46;;;;;;;8.63;4.00;;;37.30;41.40;;;;;;4881574;29;20028;-82
2023/06/18 11:52:16;;;;;;;3.58;3.28;;;36.60;42.30;;;;;;4898271;29;20037;-83
2023/06/18 11:54:43;;;;;;;3.25;2.95;;;37.00;42.10;;;;;;4881865;29;20032;-82
2023/06/18 11:57:17;;;;;;;3.55;3.25;;;37.70;41.90;;;;;;4898225;29;20386;-81
2023/06/18 11:59:44;;;;;;;3.47;3.28;;;37.20;41.90;;;;;;4899519;29;20033;-84
2023/06/18 12:02:15;;;;;;;3.70;3.40;;;37.00;41.90;;;;;;4881341;29;20554;-84
2023/06/18 12:04:41;;;;;;;7.10;3.33;;;36.20;41.50;;;;;;4880986;29;20282;-81
2023/06/18 12:07:07;;;;;;;5.80;3.30;;;36.30;42.50;;;;;;4880984;29;20040;-82
2023/06/18 12:09:35;;;;;;;3.40;3.08;;;36.20;42.60;;;;;;4880668;29;20104;-83
2023/06/18 12:12:53;;;;;;;3.22;3.03;;;35.60;42.20;;;;;;4880610;29;20040;-81
2023/06/18 12:15:49;;;;;;;3.85;3.38;;;34.50;42.70;;;;;;4857725;29;20025;-81
2023/06/18 12:18:33;;;;;;;3.50;3.30;;;33.50;44.00;;;;;;4887640;29;20045;-82
2023/06/18 12:20:59;;;;;;;3.95;3.55;;;34.00;44.60;;;;;;4880417;29;20048;-81
2023/06/18 12:23:26;;;;;;;8.93;3.42;;;34.00;44.40;;;;;;4880055;29;20024;-81
2023/06/18 12:25:52;;;;;;;4.03;3.45;;;34.80;45.10;;;;;;4880982;29;20028;-83
2023/06/18 12:28:23;;;;;;;4.13;3.72;;;35.50;44.10;;;;;;4881155;29;20032;-82
2023/06/18 12:30:51;;;;;;;6.57;3.75;;;36.00;44.50;;;;;;4881016;29;20035;-81
2023/06/18 12:33:18;;;;;;;4.40;3.58;;;35.80;43.10;;;;;;4880767;29;20120;-83
2023/06/18 12:35:56;;;;;;;3.83;3.53;;;36.60;43.30;;;;;;4880792;29;20100;-81
2023/06/18 12:38:22;;;;;;;6.40;3.65;;;37.40;40.90;;;;;;4881411;29;20036;-85
2023/06/18 12:40:49;;;;;;;4.22;3.85;;;37.50;40.70;;;;;;4881321;29;20033;-84
2023/06/18 12:43:17;;;;;;;3.45;3.25;;;36.00;41.30;;;;;;4897903;29;20056;-84
2023/06/18 12:45:48;;;;;;;4.68;3.35;;;35.30;43.40;;;;;;4890856;29;20076;-82
2023/06/18 12:48:18;;;;;;;3.97;3.47;;;34.90;43.70;;;;;;4895991;29;20060;-83
2023/06/18 12:50:52;;;;;;;4.68;4.03;;;34.70;44.20;;;;;;4910755;29;20100;-85
2023/06/18 12:53:24;;;;;;;5.82;4.05;;;34.40;44.90;;;;;;4887387;29;20067;-83
2023/06/18 12:55:51;;;;;;;4.35;3.95;;;33.90;44.80;;;;;;4882280;29;20073;-84
2023/06/18 12:58:21;;;;;;;3.88;3.58;;;33.10;46.20;;;;;;4879886;29;20127;-85
2023/06/18 13:00:48;;;;;;;3.83;3.53;;;33.10;47.50;;;;;;4880068;29;20032;-83
2023/06/18 13:03:15;;;;;;;6.15;3.70;;;33.10;46.50;;;;;;4879653;29;20071;-84
2023/06/18 13:05:42;;;;;;;3.97;3.47;;;33.40;45.20;;;;;;4879764;29;20039;-82
2023/06/18 13:08:13;;;;;;;5.55;4.60;;;29.50;42.30;;;;;;4879651;29;20056;-81
2023/06/18 13:10:39;;;;;;;5.70;3.63;;;33.20;45.00;;;;;;4879997;29;20045;-83
2023/06/18 13:13:08;;;;;;;4.30;3.90;;;34.50;45.30;;;;;;4879791;29;20161;-81
2023/06/18 13:15:34;;;;;;;3.67;3.35;;;36.30;43.00;;;;;;4880068;29;20033;-83
2023/06/18 13:17:59;;;;;;;3.90;3.60;;;36.80;41.80;;;;;;4881595;29;20095;-81
2023/06/18 13:20:25;;;;;;;4.47;4.03;;;34.70;41.40;;;;;;4886082;29;20025;-83
2023/06/18 13:22:51;;;;;;;4.85;3.65;;;36.60;41.50;;;;;;4883093;29;20033;-85
2023/06/18 13:25:16;;;;;;;4.50;4.10;;;35.20;41.20;;;;;;4897273;29;20071;-83
2023/06/18 13:27:42;;;;;;;4.55;3.13;;;35.10;42.80;;;;;;4879419;29;20116;-83
2023/06/18 13:30:08;;;;;;;4.32;3.33;;;34.50;43.10;;;;;;4879002;29;20161;-82
2023/06/18 13:32:34;;;;;;;8.55;3.95;;;34.00;44.40;;;;;;4879951;29;20032;-84
2023/06/18 13:35:00;;;;;;;4.38;3.70;;;34.20;45.50;;;;;;4880722;29;20053;-84
2023/06/18 13:37:26;;;;;;;3.83;3.53;;;35.30;44.50;;;;;;4896918;29;20035;-83
2023/06/18 13:39:52;;;;;;;4.03;3.67;;;35.50;43.80;;;;;;4881202;29;20197;-81
2023/06/18 13:42:18;;;;;;;3.78;3.47;;;36.50;42.50;;;;;;4901450;29;20035;-83
2023/06/18 13:44:44;;;;;;;4.70;3.13;;;37.50;41.10;;;;;;4889668;29;20100;-84
2023/06/18 13:47:10;;;;;;;6.68;3.40;;;38.10;41.50;;;;;;4882677;29;20044;-81
2023/06/18 13:49:36;;;;;;;3.80;3.20;;;38.60;40.60;;;;;;4885977;29;20502;-82
2023/06/18 13:52:04;;;;;;;3.88;3.45;;;38.20;40.40;;;;;;4907020;29;20028;-83
2023/06/18 13:54:29;;;;;;;3.13;2.93;;;36.70;41.20;;;;;;4888260;29;20039;-84
2023/06/18 13:56:55;;;;;;;6.38;3.90;;;36.00;42.00;;;;;;4891028;29;20048;-86
2023/06/18 13:59:21;;;;;;;4.13;3.17;;;35.90;42.30;;;;;;4879712;29;20036;-82
2023/06/18 14:01:47;;;;;;;3.72;3.42;;;35.60;43.30;;;;;;4880679;29;20028;-82
2023/06/18 14:04:13;;;;;;;3.97;3.58;;;35.80;42.30;;;;;;4881074;29;20036;-79
2023/06/18 14:06:39;;;;;;;5.60;3.53;;;;;;;;;;4885013;29;20028;-81
2023/06/18 14:09:06;;;;;;;4.45;4.03;;;36.20;40.90;;;;;;4896137;29;20168;-81
2023/06/18 14:11:32;;;;;;;9.77;4.38;;;;;;;;;;4879391;29;20033;-82
2023/06/18 14:13:58;;;;;;;4.63;3.75;;;35.10;42.50;;;;;;4895665;29;20039;-85
2023/06/18 14:16:25;;;;;;;4.88;3.88;;;35.20;44.00;;;;;;4879074;29;20029;-85
2023/06/18 14:18:51;;;;;;;4.63;3.30;;;35.50;42.70;;;;;;4879265;29;20039;-84
2023/06/18 14:21:17;;;;;;;3.75;3.30;;;;;;;;;;4879587;29;20360;-82
2023/06/18 14:23:44;;;;;;;3.25;2.95;;;34.70;43.10;;;;;;4895489;29;20138;-83
2023/06/18 14:26:10;;;;;;;3.03;2.83;;;34.40;44.60;;;;;;4880445;29;20043;-83
2023/06/18 14:28:35;;;;;;;3.72;3.42;;;34.10;45.50;;;;;;4882970;29;20131;-85
2023/06/18 14:31:02;;;;;;;7.05;3.30;;;33.40;46.30;;;;;;4882383;29;20097;-81
2023/06/18 14:33:28;;;;;;;4.25;2.80;;;33.20;46.00;;;;;;4880503;29;20027;-83
2023/06/18 14:35:54;;;;;;;4.20;3.80;;;33.30;47.00;;;;;;4888522;29;20068;-83
2023/06/18 14:38:19;;;;;;;3.38;3.17;;;33.40;46.80;;;;;;4889033;29;20179;-81
2023/06/18 14:40:45;;;;;;;7.63;3.88;;;33.50;48.60;;;;;;4888891;29;20020;-83
2023/06/18 14:43:11;;;;;;;4.20;3.80;;;33.30;46.80;;;;;;4893173;29;20387;-83
2023/06/18 14:45:36;;;;;;;4.32;3.92;;;32.70;47.70;;;;;;4918665;29;20389;-87
2023/06/18 14:48:03;;;;;;;3.78;3.42;;;32.00;48.90;;;;;;4904639;29;20124;-88
2023/06/18 14:50:29;;;;;;;6.38;3.63;;;31.80;47.70;;;;;;4904244;29;20020;-87
2023/06/18 14:52:54;;;;;;;5.85;3.90;;;31.80;48.50;;;;;;4903877;29;20485;-87
2023/06/18 14:55:20;;;;;;;4.65;4.03;;;31.80;49.00;;;;;;4903672;29;20052;-88
2023/06/18 14:57:46;;;;;;;4.25;3.85;;;31.90;48.60;;;;;;4905260;29;20036;-87
2023/06/18 15:00:12;;;;;;;3.33;3.13;;;31.80;47.30;;;;;;4905555;29;20039;-91
2023/06/18 15:02:38;;;;;;;4.20;3.63;;;31.50;47.20;;;;;;4917541;29;20047;-81
2023/06/18 15:05:04;;;;;;;4.18;3.78;;;31.50;47.60;;;;;;4902928;29;20500;-82
2023/06/18 15:07:30;;;;;;;4.53;3.67;;;;;;;;;;4902628;29;20028;-79
2023/06/18 15:09:56;;;;;;;5.07;3.92;;;31.50;50.30;;;;;;4918476;29;20031;-80
2023/06/18 15:12:22;;;;;;;8.57;4.05;;;;;;;;;;4918261;29;20056;-80
2023/06/18 15:14:48;;;;;;;6.32;3.90;;;;;;;;;;4918632;29;20122;-79
2023/06/18 15:17:13;;;;;;;4.38;3.55;;;30.60;51.60;;;;;;4918633;29;20087;-80
2023/06/18 15:19:40;;;;;;;4.25;3.85;;;;;;;;;;4919333;29;20032;-81
2023/06/18 15:22:07;;;;;;;3.97;3.53;;;30.40;52.10;;;;;;4917545;29;20024;-77
2023/06/18 15:24:33;;;;;;;4.68;4.03;;;29.60;54.60;;;;;;4917842;29;20256;-83
2023/06/18 15:26:59;;;;;;;4.20;3.80;;;28.40;58.00;;;;;;4918836;29;20024;-86
2023/06/18 15:29:25;;;;;;;13.65;4.15;;;28.20;58.40;;;;;;4918263;29;20028;-85
2023/06/18 15:31:51;;;;;;;4.63;3.95;;;26.80;61.80;;;;;;4917751;29;20064;-86
2023/06/18 15:34:17;;;;;;;15.38;4.85;;;;;;;;;;4923441;29;20126;-86
2023/06/18 15:36:43;;;;;;;8.02;4.18;;;;;;;;;;4923432;29;20048;-87
2023/06/18 15:39:12;;;;;;;6.20;4.53;;;24.80;70.50;;;;;;4924102;29;20039;-84
2023/06/18 15:41:38;;;;;;;15.25;4.55;;;;;;;;;;4923246;29;20304;-84
2023/06/18 15:44:10;;;;;;;4.97;4.05;;;23.50;79.10;;;;;;4924692;29;20347;-83
2023/06/18 15:47:01;;;;;;;4.40;3.92;;;;;;;;;;4909667;29;20440;-82
2023/06/18 15:49:44;;;;;;;5.25;4.32;;;22.90;95.20;;;;;;4926123;29;20056;-86
2023/06/18 15:52:11;;;;;;;4.97;3.97;;;22.70;99.90;;;;;;4923157;29;20036;-84
2023/06/18 15:54:37;;;;;;;11.23;4.45;;;22.70;99.90;;;;;;4925078;29;20027;-81
2023/06/18 15:57:04;;;;;;;6.22;4.75;;;22.30;99.90;;;;;;4923404;29;20032;-82
2023/06/18 15:59:30;;;;;;;5.72;4.05;;;21.30;99.90;;;;;;4923257;29;20039;-83
2023/06/18 16:01:56;;;;;;;10.20;4.28;;;;;;;;;;4908286;29;20032;-85
2023/06/18 16:04:22;;;;;;;4.47;3.83;;;21.00;99.90;;;;;;4923484;29;20036;-83
2023/06/18 16:06:47;;;;;;;6.85;4.18;;;20.80;99.90;;;;;;4924458;29;20083;-86
2023/06/18 16:09:13;;;;;;;5.30;4.70;;;20.60;99.90;;;;;;4924116;29;20091;-85
2023/06/18 16:11:39;;;;;;;8.93;4.93;;;20.50;99.90;;;;;;4904608;29;20126;-85
2023/06/18 16:14:05;;;;;;;8.38;4.10;;;20.60;99.90;;;;;;4918850;29;20024;-85
2023/06/18 16:16:31;;;;;;;7.07;4.75;;;;;;;;;;4908047;29;20039;-86
2023/06/18 16:18:57;;;;;;;5.03;4.40;;;20.60;99.90;;;;;;4906962;29;20104;-85
2023/06/18 16:21:22;;;;;;;11.75;4.47;;;20.70;99.90;;;;;;4904583;29;20067;-82
2023/06/18 16:23:54;;;;;;;7.15;4.60;;;20.90;99.90;;;;;;4907067;29;20099;-81
2023/06/18 16:26:23;;;;;;;6.13;4.75;;;21.10;99.90;;;;;;4920825;29;20377;-84
2023/06/18 16:28:49;;;;;;;7.35;5.60;;;21.30;99.90;;;;;;4905942;29;20055;-83
2023/06/18 16:31:15;;;;;;;5.35;4.70;;;21.40;99.90;;;;;;4908299;29;20042;-84
2023/06/18 16:33:41;;;;;;;7.68;5.25;;;21.40;99.90;;;;;;4906496;29;20091;-81
2023/06/18 16:36:06;;;;;;;6.13;5.00;;;21.50;99.90;;;;;;4920519;29;20047;-83
2023/06/18 16:38:32;;;;;;;5.15;4.63;;;21.80;99.90;;;;;;4927158;29;20088;-84
2023/06/18 16:40:58;;;;;;;5.63;4.00;;;22.10;99.90;;;;;;4923704;29;20028;-86
2023/06/18 16:43:23;;;;;;;8.98;3.95;;;22.20;99.90;;;;;;4909209;29;20091;-85
2023/06/18 16:45:49;;;;;;;8.40;3.80;;;;;;;;;;4913268;29;20059;-85
2023/06/18 16:48:15;;;;;;;4.63;3.90;;;22.00;99.90;;;;;;4924448;29;20092;-87
2023/06/18 16:50:41;;;;;;;8.88;4.03;;;22.10;99.90;;;;;;4919823;29;20032;-83
2023/06/18 16:53:06;;;;;;;5.72;4.30;;;22.00;99.90;;;;;;4916900;29;20080;-84
2023/06/18 16:55:32;;;;;;;8.02;4.47;;;21.90;99.90;;;;;;4917294;29;20396;-83
2023/06/18 16:57:58;;;;;;;5.35;3.67;;;21.90;99.90;;;;;;4918570;29;20039;-82
2023/06/18 17:00:23;;;;;;;4.03;3.28;;;21.90;99.90;;;;;;4922155;29;20024;-81
2023/06/18 17:02:49;;;;;;;3.55;3.13;;;22.00;99.90;;;;;;4904595;29;20348;-82
2023/06/18 17:05:15;;;;;;;3.95;3.17;;;22.20;99.90;;;;;;4904698;29;20020;-80
2023/06/18 17:07:41;;;;;;;4.38;3.47;;;22.60;99.90;;;;;;4920106;29;20245;-82
2023/06/18 17:10:06;;;;;;;4.05;3.60;;;22.70;99.90;;;;;;4918431;29;20278;-80
2023/06/18 17:12:32;;;;;;;3.22;2.83;;;22.90;99.90;;;;;;4918377;29;20051;-82
2023/06/18 17:14:58;;;;;;;6.45;3.40;;;23.10;99.90;;;;;;4903792;29;20340;-85
2023/06/18 17:17:26;;;;;;;5.35;3.42;;;23.40;99.90;;;;;;4923220;29;20043;-82
2023/06/18 17:19:54;;;;;;;3.38;3.08;;;23.40;99.90;;;;;;4925844;29;20061;-82
2023/06/18 17:22:20;;;;;;;3.05;2.85;;;23.40;99.90;;;;;;4905908;29;20063;-81
2023/06/18 17:24:46;;;;;;;2.95;2.53;;;23.50;99.90;;;;;;4913521;29;20028;-82
2023/06/18 17:27:12;;;;;;;3.28;2.97;;;23.50;99.90;;;;;;4913125;29;20035;-81
2023/06/18 17:29:38;;;;;;;4.35;3.00;;;23.50;99.90;;;;;;4904688;29;20035;-88
2023/06/18 17:32:07;;;;;;;2.70;2.50;;;23.50;99.90;;;;;;4902753;29;20335;-85
2023/06/18 17:34:33;;;;;;;4.80;3.63;;;23.50;99.90;;;;;;4919479;29;20031;-86
2023/06/18 17:36:59;;;;;;;4.88;2.95;;;23.40;99.90;;;;;;4904062;29;20032;-86
2023/06/18 17:39:24;;;;;;;2.25;2.05;;;24.80;99.90;;;;;;4904757;29;20096;-85
2023/06/18 17:41:50;;;;;;;4.88;2.95;;;23.20;99.90;;;;;;4903532;29;20048;-83
2023/06/18 17:44:16;;;;;;;4.93;2.67;;;23.10;99.90;;;;;;4923088;29;20076;-81